Time;durP1;ratioP1;P1;durP2;ratioP2;P2;SDS_P1;SDS_P2;PMS_P1;PMS_P2;Temp;Humidity;BMP_temperature;BMP_pressure;BME280_temperature;BME280_humidity;BME280_pressure;Samples;Min_cycle;Max_cycle;Signal;HPM_P1;HPM_P2
2024/03/17 00:02:30;;;;;;;4.40;3.40;;;;;;;8.08;100.00;96698.80;108643;1274;22634;-73
2024/03/17 00:05:00;;;;;;;4.10;3.00;;;;;;;8.14;100.00;96696.00;108639;1274;22523;-74
2024/03/17 00:07:31;;;;;;;4.10;2.90;;;;;;;8.16;100.00;96693.21;108614;1274;22521;-73
2024/03/17 00:10:04;;;;;;;4.50;3.10;;;;;;;8.14;100.00;96696.48;108676;1274;22523;-74
2024/03/17 00:12:34;;;;;;;4.90;3.50;;;;;;;8.11;100.00;96699.21;108616;1274;22522;-74
2024/03/17 00:15:07;;;;;;;6.10;4.00;;;;;;;8.08;100.00;96700.33;108634;1266;22532;-74
2024/03/17 00:17:38;;;;;;;4.50;3.50;;;;;;;8.05;100.00;96701.86;108609;1272;25276;-74
2024/03/17 00:20:19;;;;;;;4.20;3.40;;;;;;;8.01;100.00;96706.05;108648;1270;22538;-74
2024/03/17 00:22:51;;;;;;;4.20;3.50;;;;;;;7.97;100.00;96710.99;108661;1274;24238;-74
2024/03/17 00:25:23;;;;;;;3.90;3.40;;;;;;;7.95;100.00;96705.40;108632;1274;22523;-73
2024/03/17 00:27:57;;;;;;;4.60;3.40;;;;;;;7.94;100.00;96698.01;108654;1274;24270;-73
2024/03/17 00:30:28;;;;;;;4.90;3.70;;;;;;;7.93;100.00;96701.27;108634;1274;22947;-74
2024/03/17 00:32:59;;;;;;;5.30;4.00;;;;;;;7.92;100.00;96697.00;108642;1274;22530;-74
2024/03/17 00:35:30;;;;;;;4.80;4.10;;;;;;;7.90;100.00;96701.02;108647;1274;22548;-74
2024/03/17 00:38:03;;;;;;;4.20;3.50;;;;;;;7.89;100.00;96699.84;108620;1274;25518;-73
2024/03/17 00:40:33;;;;;;;4.20;3.70;;;;;;;7.89;100.00;96713.58;108673;1274;23226;-74
2024/03/17 00:43:05;;;;;;;3.70;3.10;;;;;;;7.86;100.00;96715.33;108600;1271;22522;-74
2024/03/17 00:45:35;;;;;;;3.70;3.20;;;;;;;7.80;100.00;96710.88;108652;1266;25270;-74
2024/03/17 00:48:07;;;;;;;4.20;3.30;;;;;;;7.72;100.00;96717.76;108648;1274;22537;-74
2024/03/17 00:50:39;;;;;;;4.50;3.40;;;;;;;7.68;100.00;96713.15;108613;1272;22629;-73
2024/03/17 00:53:10;;;;;;;3.70;3.30;;;;;;;7.64;100.00;96716.93;108651;1274;29005;-74
2024/03/17 00:55:41;;;;;;;4.60;3.50;;;;;;;7.64;100.00;96724.74;108601;1275;26490;-74
2024/03/17 00:58:11;;;;;;;4.80;3.20;;;;;;;7.62;100.00;96720.41;108656;1274;24257;-74
2024/03/17 01:00:47;;;;;;;4.70;3.70;;;;;;;7.61;100.00;96723.36;108617;1269;25362;-73
2024/03/17 01:03:18;;;;;;;3.60;3.20;;;;;;;7.59;100.00;96724.98;108645;1274;22523;-74
2024/03/17 01:05:52;;;;;;;4.00;3.20;;;;;;;7.57;100.00;96724.48;108672;1270;22530;-74
2024/03/17 01:08:22;;;;;;;4.00;3.20;;;;;;;7.54;100.00;96723.52;108689;1273;23027;-74
2024/03/17 01:10:53;;;;;;;4.70;3.40;;;;;;;7.51;100.00;96724.68;108662;1267;22526;-74
2024/03/17 01:13:23;;;;;;;4.40;3.80;;;;;;;7.50;100.00;96729.52;108650;1272;23262;-74
2024/03/17 01:15:55;;;;;;;5.40;4.70;;;;;;;7.50;100.00;96728.31;108637;1274;22654;-73
2024/03/17 01:18:25;;;;;;;5.70;4.50;;;;;;;7.51;100.00;96724.14;108707;1274;22532;-73
2024/03/17 01:20:59;;;;;;;5.00;4.50;;;;;;;7.51;100.00;96721.30;108682;1256;24374;-74
2024/03/17 01:23:29;;;;;;;5.30;4.60;;;;;;;7.49;100.00;96719.29;108639;1253;22529;-73
2024/03/17 01:26:00;;;;;;;6.40;4.90;;;;;;;7.47;100.00;96718.12;108656;1274;22527;-73
2024/03/17 01:28:30;;;;;;;4.50;3.90;;;;;;;7.48;100.00;96720.76;108638;1274;22574;-74
2024/03/17 01:31:01;;;;;;;6.60;4.80;;;;;;;7.50;100.00;96722.67;108663;1274;22541;-74
2024/03/17 01:33:32;;;;;;;4.00;3.60;;;;;;;7.49;100.00;96725.14;108574;1275;25400;-74
2024/03/17 01:36:05;;;;;;;2.00;1.80;;;;;;;7.49;100.00;96739.23;108637;1273;22538;-73
2024/03/17 01:38:35;;;;;;;3.00;2.10;;;;;;;7.36;100.00;96765.34;108631;1275;22643;-73
2024/03/17 01:41:06;;;;;;;2.10;1.50;;;;;;;7.10;100.00;96752.71;108646;1275;25492;-73
2024/03/17 01:43:36;;;;;;;3.20;1.70;;;;;;;6.96;100.00;96769.42;108637;1272;22565;-74
2024/03/17 01:46:12;;;;;;;1.70;1.50;;;;;;;6.87;100.00;96770.98;108603;1274;22649;-74
2024/03/17 01:48:43;;;;;;;1.80;1.40;;;;;;;6.81;100.00;96773.83;108636;1274;24187;-73
2024/03/17 01:51:18;;;;;;;1.50;1.30;;;;;;;6.79;100.00;96777.98;108642;1269;22519;-73
2024/03/17 01:53:49;;;;;;;2.20;1.40;;;;;;;6.79;100.00;96785.20;108586;1274;23427;-73
2024/03/17 01:56:22;;;;;;;2.00;1.60;;;;;;;6.77;100.00;96773.90;108676;1266;22579;-74
2024/03/17 01:58:52;;;;;;;1.90;1.60;;;;;;;6.60;100.00;96784.27;108653;1274;22942;-73
2024/03/17 02:01:23;;;;;;;1.80;1.50;;;;;;;6.53;100.00;96772.35;108615;1267;22531;-73
2024/03/17 02:03:53;;;;;;;2.40;1.90;;;;;;;6.42;100.00;96780.49;108631;1274;22664;-73
2024/03/17 02:06:24;;;;;;;2.10;1.90;;;;;;;6.33;100.00;96788.91;108622;1271;26463;-73
2024/03/17 02:08:56;;;;;;;2.30;2.10;;;;;;;6.28;100.00;96793.86;108600;1272;22506;-74
2024/03/17 02:11:28;;;;;;;3.80;2.90;;;;;;;6.27;100.00;96790.70;108667;1273;23002;-74
2024/03/17 02:13:59;;;;;;;2.90;2.60;;;;;;;6.24;100.00;96792.99;108638;1275;25423;-73
2024/03/17 02:16:30;;;;;;;2.40;2.20;;;;;;;6.23;100.00;96796.61;108629;1274;22543;-73
2024/03/17 02:19:03;;;;;;;3.90;2.60;;;;;;;6.24;100.00;96793.56;108675;1273;24066;-73
2024/03/17 02:21:33;;;;;;;3.00;2.30;;;;;;;6.23;100.00;96803.66;108611;1275;22519;-74
2024/03/17 02:24:08;;;;;;;3.20;2.50;;;;;;;6.16;100.00;96812.41;108620;1274;22554;-73
2024/03/17 02:26:40;;;;;;;2.70;2.50;;;;;;;6.12;100.00;96825.48;108656;1272;28025;-73
2024/03/17 02:29:13;;;;;;;2.40;2.10;;;;;;;6.09;100.00;96840.48;108643;1268;22561;-73
2024/03/17 02:31:46;;;;;;;1.80;1.40;;;;;;;6.07;100.00;96849.37;108652;1275;22525;-73
2024/03/17 02:34:19;;;;;;;4.30;1.50;;;;;;;5.98;100.00;96853.04;108592;1274;22527;-74
2024/03/17 02:36:49;;;;;;;2.50;1.60;;;;;;;5.80;100.00;96855.64;108654;1274;22669;-74
2024/03/17 02:39:38;;;;;;;4.30;2.00;;;;;;;5.59;100.00;96866.79;108675;1274;22636;-73
2024/03/17 02:42:10;;;;;;;4.10;1.80;;;;;;;5.50;100.00;96868.55;108610;1274;24219;-73
2024/03/17 02:44:46;;;;;;;4.80;2.30;;;;;;;5.38;99.99;96878.61;108653;1274;24241;-73
2024/03/17 02:47:20;;;;;;;3.90;2.10;;;;;;;5.27;99.93;96883.48;108651;1275;24137;-74
2024/03/17 02:49:51;;;;;;;4.20;2.70;;;;;;;5.20;99.99;96892.29;108704;1272;26644;-74
2024/03/17 02:52:22;;;;;;;3.50;2.20;;;;;;;5.07;99.77;96890.06;108651;1275;22582;-73
2024/03/17 02:54:53;;;;;;;6.90;3.20;;;;;;;4.91;99.61;96894.41;108619;1272;22629;-74
2024/03/17 02:57:29;;;;;;;7.70;3.10;;;;;;;4.73;99.58;96910.67;108647;1268;22531;-73
2024/03/17 02:59:59;;;;;;;7.60;3.20;;;;;;;4.69;99.67;96913.79;108659;1267;22529;-73
2024/03/17 03:02:29;;;;;;;5.60;2.60;;;;;;;4.59;99.34;96913.69;108576;1275;23588;-73
2024/03/17 03:05:00;;;;;;;4.90;2.70;;;;;;;4.51;99.19;96911.80;108548;1275;23814;-73
2024/03/17 03:07:30;;;;;;;6.80;2.40;;;;;;;4.43;99.25;96915.30;108610;1275;24152;-73
2024/03/17 03:10:03;;;;;;;9.10;3.00;;;;;;;4.40;99.39;96916.20;108579;1275;25363;-73
2024/03/17 03:12:36;;;;;;;6.10;2.80;;;;;;;4.38;99.11;96919.92;108571;1275;22648;-73
2024/03/17 03:15:11;;;;;;;6.00;3.40;;;;;;;4.29;98.81;96931.39;108596;1275;23897;-73
2024/03/17 03:17:44;;;;;;;6.10;3.60;;;;;;;4.21;98.86;96932.38;108526;1270;22563;-73
2024/03/17 03:20:17;;;;;;;6.50;3.10;;;;;;;4.15;98.71;96924.48;108598;1275;22563;-73
2024/03/17 03:22:48;;;;;;;5.20;2.40;;;;;;;4.09;98.56;96936.15;108537;1275;22525;-73
2024/03/17 03:25:18;;;;;;;6.90;3.10;;;;;;;4.02;98.64;96930.05;108609;1275;25506;-74
2024/03/17 03:27:48;;;;;;;3.30;2.60;;;;;;;3.98;98.48;96937.48;108597;1275;22573;-73
2024/03/17 03:30:21;;;;;;;5.80;3.20;;;;;;;3.96;98.18;96933.45;108569;1275;23075;-74
2024/03/17 03:32:52;;;;;;;4.80;2.30;;;;;;;3.92;98.12;96938.38;108609;1275;22565;-73
2024/03/17 03:35:22;;;;;;;7.60;3.30;;;;;;;3.92;98.10;96934.70;108586;1275;24336;-73
2024/03/17 03:37:53;;;;;;;7.70;3.30;;;;;;;3.98;98.17;96936.11;108576;1272;22550;-73
2024/03/17 03:40:24;;;;;;;5.70;2.70;;;;;;;4.03;98.12;96935.96;108585;1275;22535;-73
2024/03/17 03:42:56;;;;;;;6.30;3.40;;;;;;;4.10;98.21;96936.40;108561;1272;22535;-73
2024/03/17 03:45:26;;;;;;;9.40;3.20;;;;;;;4.18;98.23;96936.55;108556;1275;22655;-73
2024/03/17 03:47:57;;;;;;;6.60;3.20;;;;;;;4.22;97.89;96936.70;108558;1273;22527;-73
2024/03/17 03:50:27;;;;;;;7.80;2.80;;;;;;;4.19;97.39;96942.30;108580;1275;22652;-73
2024/03/17 03:52:57;;;;;;;6.70;3.20;;;;;;;4.13;97.20;96947.17;108533;1275;22532;-74
2024/03/17 03:55:29;;;;;;;9.20;4.80;;;;;;;4.12;97.23;96939.22;108615;1273;22540;-73
2024/03/17 03:57:59;;;;;;;8.50;4.70;;;;;;;4.09;97.11;96944.83;108564;1275;22522;-74
2024/03/17 04:00:31;;;;;;;7.50;3.90;;;;;;;4.06;97.06;96941.80;108592;1271;22523;-73
2024/03/17 04:03:02;;;;;;;7.10;4.80;;;;;;;4.02;97.01;96943.41;108703;1274;25230;-73
2024/03/17 04:05:34;;;;;;;7.20;4.00;;;;;;;4.01;97.10;96940.92;108631;1274;23005;-73
2024/03/17 04:08:05;;;;;;;11.00;6.50;;;;;;;4.06;97.18;96942.48;108671;1275;25364;-73
2024/03/17 04:10:35;;;;;;;11.30;7.00;;;;;;;4.03;96.86;96948.14;108627;1274;22682;-73
2024/03/17 04:13:06;;;;;;;11.00;6.60;;;;;;;4.03;96.98;96947.35;108601;1275;22555;-73
2024/03/17 04:15:39;;;;;;;11.90;6.50;;;;;;;4.02;97.04;96948.58;108614;1275;22522;-73
2024/03/17 04:18:10;;;;;;;12.60;6.80;;;;;;;4.02;97.07;96942.93;108688;1267;25409;-73
2024/03/17 04:20:44;;;;;;;9.60;6.60;;;;;;;4.00;97.16;96952.02;108665;1274;24285;-73
2024/03/17 04:23:15;;;;;;;10.00;6.60;;;;;;;3.99;97.17;96956.09;108620;1275;24290;-73
2024/03/17 04:25:48;;;;;;;10.00;6.80;;;;;;;3.98;97.27;96955.23;108673;1267;22696;-73
2024/03/17 04:28:19;;;;;;;12.00;7.20;;;;;;;3.98;97.27;96957.33;108666;1275;22523;-73
2024/03/17 04:30:49;;;;;;;8.40;6.90;;;;;;;3.97;97.32;96962.91;108661;1275;22526;-73
2024/03/17 04:33:20;;;;;;;12.20;7.70;;;;;;;3.96;97.43;96965.20;108601;1275;22537;-73
2024/03/17 04:35:50;;;;;;;11.50;7.60;;;;;;;3.97;97.40;96970.15;108665;1274;22530;-73
2024/03/17 04:38:24;;;;;;;12.40;8.40;;;;;;;3.98;97.47;96972.30;108622;1275;23729;-73
2024/03/17 04:41:03;;;;;;;11.20;7.80;;;;;;;3.99;97.29;96980.48;108646;1267;22539;-73
2024/03/17 04:43:35;;;;;;;12.90;7.70;;;;;;;4.00;97.29;96977.07;108666;1274;22532;-73
2024/03/17 04:46:09;;;;;;;11.40;7.80;;;;;;;3.99;97.17;96978.54;108622;1274;22522;-73
2024/03/17 04:48:42;;;;;;;9.40;6.50;;;;;;;4.00;97.14;96976.78;108628;1274;22531;-73
2024/03/17 04:51:21;;;;;;;12.60;8.80;;;;;;;4.00;97.11;96975.30;108601;1269;22541;-73
2024/03/17 04:53:52;;;;;;;12.20;8.70;;;;;;;4.00;96.91;96982.12;108624;1275;25338;-73
2024/03/17 04:56:23;;;;;;;14.40;6.50;;;;;;;4.01;97.10;96977.48;108627;1273;22545;-73
2024/03/17 04:58:53;;;;;;;15.70;7.90;;;;;;;4.04;96.72;96974.02;108666;1274;24375;-73
2024/03/17 05:01:24;;;;;;;13.90;8.50;;;;;;;4.04;96.53;96972.66;108622;1274;24335;-73
2024/03/17 05:03:55;;;;;;;14.70;8.20;;;;;;;4.05;96.37;96979.02;108680;1274;24555;-73
2024/03/17 05:06:26;;;;;;;10.90;7.60;;;;;;;4.05;96.19;96977.25;108636;1267;22686;-73
2024/03/17 05:08:57;;;;;;;11.40;7.30;;;;;;;4.07;96.24;96983.23;108614;1267;24276;-73
2024/03/17 05:11:27;;;;;;;11.30;7.70;;;;;;;4.11;96.08;96992.42;108626;1275;22577;-73
2024/03/17 05:13:58;;;;;;;9.50;7.20;;;;;;;4.11;95.85;96989.42;108640;1274;22655;-73
2024/03/17 05:16:29;;;;;;;11.30;6.80;;;;;;;4.11;95.41;96997.02;108636;1270;22529;-73
2024/03/17 05:19:00;;;;;;;10.10;6.80;;;;;;;4.10;95.10;96997.78;108643;1267;22532;-73
2024/03/17 05:21:31;;;;;;;11.20;8.20;;;;;;;4.08;94.82;96995.42;108633;1274;22534;-73
2024/03/17 05:24:03;;;;;;;12.90;8.10;;;;;;;4.05;94.53;96999.65;108633;1274;22526;-73
2024/03/17 05:26:34;;;;;;;11.70;6.90;;;;;;;4.03;94.46;97006.99;108600;1270;22523;-73
2024/03/17 05:29:04;;;;;;;12.20;6.10;;;;;;;4.01;93.93;97010.31;108632;1275;22521;-73
2024/03/17 05:31:35;;;;;;;11.10;6.50;;;;;;;4.00;93.81;97014.59;108636;1275;22574;-73
2024/03/17 05:34:05;;;;;;;13.20;8.10;;;;;;;4.00;93.63;97014.55;108605;1274;23642;-73
2024/03/17 05:36:36;;;;;;;13.60;7.80;;;;;;;3.97;93.18;97013.44;108617;1275;22614;-73
2024/03/17 05:39:07;;;;;;;10.90;7.30;;;;;;;3.95;93.41;97023.20;108655;1267;22560;-73
2024/03/17 05:41:41;;;;;;;11.30;6.20;;;;;;;3.92;92.91;97020.73;108622;1274;22574;-72
2024/03/17 05:44:14;;;;;;;12.90;6.40;;;;;;;3.87;92.64;97024.41;108637;1267;26408;-73
2024/03/17 05:46:45;;;;;;;11.30;6.00;;;;;;;3.86;92.17;97025.11;108642;1274;22534;-73
2024/03/17 05:49:16;;;;;;;11.10;5.40;;;;;;;3.81;91.04;97034.66;108641;1274;22550;-73
2024/03/17 05:51:49;;;;;;;10.00;6.40;;;;;;;3.83;91.24;97039.48;108672;1267;24190;-73
2024/03/17 05:54:20;;;;;;;11.70;6.10;;;;;;;3.83;91.06;97037.73;108574;1274;22529;-73
2024/03/17 05:56:50;;;;;;;11.20;6.20;;;;;;;3.81;90.98;97041.64;108597;1274;23310;-73
2024/03/17 05:59:23;;;;;;;12.60;6.70;;;;;;;3.79;90.82;97043.84;108637;1274;25402;-73
2024/03/17 06:01:54;;;;;;;15.00;5.20;;;;;;;3.77;90.89;97042.81;108684;1267;27517;-73
2024/03/17 06:04:25;;;;;;;9.00;5.60;;;;;;;3.78;90.83;97045.11;108640;1275;22534;-73
2024/03/17 06:06:55;;;;;;;8.50;4.60;;;;;;;4.12;90.91;97038.38;108472;1266;22538;-73
2024/03/17 06:09:27;;;;;;;8.30;4.40;;;;;;;4.72;89.65;97040.95;108674;1274;25362;-73
2024/03/17 06:11:57;;;;;;;8.80;4.50;;;;;;;4.94;88.09;97045.14;108634;1274;22532;-73
2024/03/17 06:14:29;;;;;;;11.50;5.20;;;;;;;5.39;87.40;97051.24;108633;1267;22545;-73
2024/03/17 06:17:00;;;;;;;10.60;5.50;;;;;;;5.33;85.71;97055.25;108683;1267;22670;-73
2024/03/17 06:19:34;;;;;;;8.30;4.50;;;;;;;5.10;85.55;97054.10;108667;1274;22526;-73
2024/03/17 06:22:06;;;;;;;11.30;4.90;;;;;;;4.96;85.43;97054.45;108645;1267;22535;-74
2024/03/17 06:24:37;;;;;;;6.70;3.20;;;;;;;4.80;84.79;97057.89;108582;1275;22622;-73
2024/03/17 06:27:11;;;;;;;5.20;2.40;;;;;;;5.06;83.49;97057.84;108616;1272;23105;-73
2024/03/17 06:29:45;;;;;;;4.30;1.60;;;;;;;5.67;80.36;97060.77;108666;1274;22518;-73
2024/03/17 06:32:17;;;;;;;5.60;2.30;;;;;;;5.35;76.01;97058.89;108624;1271;22564;-73
2024/03/17 06:34:48;;;;;;;5.00;1.90;;;;;;;5.48;77.53;97055.77;108667;1274;24812;-73
2024/03/17 06:37:18;;;;;;;6.50;2.70;;;;;;;6.50;74.99;97060.71;108644;1270;23089;-73
2024/03/17 06:39:50;;;;;;;4.80;2.70;;;;;;;7.23;74.30;97061.21;108634;1267;22550;-73
2024/03/17 06:42:23;;;;;;;5.70;2.60;;;;;;;6.98;73.10;97065.90;108646;1266;22542;-73
2024/03/17 06:44:53;;;;;;;5.40;2.60;;;;;;;7.09;73.96;97067.88;108590;1274;25324;-73
2024/03/17 06:47:25;;;;;;;7.10;2.70;;;;;;;7.19;72.25;97070.76;108686;1274;22612;-73
2024/03/17 06:49:56;;;;;;;4.50;2.50;;;;;;;7.18;73.63;97072.06;108659;1274;24895;-73
2024/03/17 06:52:26;;;;;;;5.10;2.60;;;;;;;7.72;72.44;97072.73;108647;1274;23749;-73
2024/03/17 06:54:57;;;;;;;8.90;2.90;;;;;;;7.48;73.10;97076.29;108640;1274;22527;-73
2024/03/17 06:57:28;;;;;;;5.90;2.70;;;;;;;7.56;72.68;97077.91;108645;1274;25299;-74
2024/03/17 06:59:59;;;;;;;8.00;3.80;;;;;;;6.86;71.04;97079.02;108618;1267;26449;-73
2024/03/17 07:02:29;;;;;;;6.20;3.00;;;;;;;7.16;72.34;97079.52;108669;1270;27044;-74
2024/03/17 07:05:00;;;;;;;11.70;6.20;;;;;;;8.46;71.56;97075.33;108634;1256;22646;-73
2024/03/17 07:07:33;;;;;;;12.50;7.50;;;;;;;9.40;69.05;97079.02;108662;1267;22527;-74
2024/03/17 07:10:06;;;;;;;6.60;2.40;;;;;;;9.89;67.42;97078.16;108645;1274;22525;-74
2024/03/17 07:12:36;;;;;;;6.20;2.30;;;;;;;10.15;64.68;97071.91;108605;1267;22535;-73
2024/03/17 07:15:13;;;;;;;8.10;2.30;;;;;;;10.09;60.13;97076.45;108639;1274;24295;-73
2024/03/17 07:17:44;;;;;;;6.30;2.80;;;;;;;10.30;60.77;97075.75;108662;1274;22526;-74
2024/03/17 07:20:17;;;;;;;5.70;2.60;;;;;;;10.80;59.81;97074.35;108643;1274;22667;-73
2024/03/17 07:22:49;;;;;;;14.80;8.40;;;;;;;10.61;58.40;97078.35;108645;1274;25048;-74
2024/03/17 07:25:20;;;;;;;7.90;3.80;;;;;;;11.11;59.19;97072.95;108639;1274;22523;-74
2024/03/17 07:27:50;;;;;;;24.20;14.80;;;;;;;11.50;57.03;97066.35;108674;1274;22627;-72
2024/03/17 07:30:21;;;;;;;4.80;2.10;;;;;;;11.71;55.75;97067.48;108652;1274;22540;-72
2024/03/17 07:32:52;;;;;;;7.70;3.90;;;;;;;11.71;51.60;97059.71;108638;1267;22536;-72
2024/03/17 07:35:22;;;;;;;9.80;6.70;;;;;;;11.46;51.11;97058.55;108662;1274;24163;-72
2024/03/17 07:37:53;;;;;;;5.50;2.40;;;;;;;11.56;51.46;97063.29;108637;1270;22534;-72
2024/03/17 07:40:24;;;;;;;5.90;2.60;;;;;;;12.33;53.46;97055.38;108645;1274;23144;-72
2024/03/17 07:42:57;;;;;;;6.10;3.90;;;;;;;12.96;51.84;97051.95;108658;1274;25243;-72
2024/03/17 07:45:27;;;;;;;6.20;4.20;;;;;;;13.25;50.64;97046.70;108600;1274;22600;-72
2024/03/17 07:47:58;;;;;;;3.60;2.20;;;;;;;13.19;49.07;97048.90;108655;1273;22543;-72
2024/03/17 07:50:32;;;;;;;11.30;8.40;;;;;;;12.90;47.75;97049.09;108629;1274;26482;-72
2024/03/17 07:53:04;;;;;;;5.10;2.80;;;;;;;12.81;46.72;97046.92;108583;1266;24394;-72
2024/03/17 07:55:34;;;;;;;5.20;2.20;;;;;;;12.07;45.21;97042.73;108651;1270;23415;-72
2024/03/17 07:58:08;;;;;;;3.20;2.10;;;;;;;11.70;45.49;97050.80;108675;1267;22527;-72
2024/03/17 08:00:40;;;;;;;5.70;2.10;;;;;;;11.67;46.31;97048.30;108604;1275;22513;-72
2024/03/17 08:03:12;;;;;;;5.20;2.20;;;;;;;11.83;46.23;97048.14;108656;1266;22544;-72
2024/03/17 08:05:49;;;;;;;3.60;2.30;;;;;;;11.96;45.22;97046.26;108612;1267;22747;-72
2024/03/17 08:08:20;;;;;;;3.30;1.90;;;;;;;11.59;43.94;97044.99;108633;1274;22465;-72
2024/03/17 08:10:51;;;;;;;5.30;2.50;;;;;;;11.19;43.59;97047.46;108646;1270;22534;-72
2024/03/17 08:13:22;;;;;;;3.30;1.50;;;;;;;10.92;44.29;97050.24;108663;1274;22530;-72
2024/03/17 08:15:59;;;;;;;4.00;1.70;;;;;;;11.19;45.48;97047.30;108632;1274;22538;-72
2024/03/17 08:18:30;;;;;;;4.10;1.90;;;;;;;11.15;44.33;97047.09;108628;1274;22646;-72
2024/03/17 08:21:03;;;;;;;4.30;2.10;;;;;;;10.92;46.12;97051.56;108662;1270;26564;-71
2024/03/17 08:23:37;;;;;;;6.60;2.40;;;;;;;11.22;45.50;97052.39;108615;1274;24092;-72
2024/03/17 08:26:09;;;;;;;7.30;3.30;;;;;;;11.01;44.78;97052.71;108618;1267;22597;-72
2024/03/17 08:28:41;;;;;;;4.20;2.90;;;;;;;10.80;44.90;97056.90;108684;1274;22526;-72
2024/03/17 08:31:12;;;;;;;3.70;2.00;;;;;;;10.17;45.40;97064.01;108687;1274;22734;-72
2024/03/17 08:33:46;;;;;;;4.40;2.70;;;;;;;9.63;45.87;97053.36;108642;1274;22561;-72
2024/03/17 08:36:20;;;;;;;4.30;2.40;;;;;;;10.03;47.92;97053.87;108647;1274;23351;-72
2024/03/17 08:38:50;;;;;;;4.50;2.20;;;;;;;9.48;47.67;97047.23;108675;1274;22523;-72
2024/03/17 08:41:21;;;;;;;6.20;1.80;;;;;;;9.92;48.16;97039.92;108637;1270;22537;-72
2024/03/17 08:43:52;;;;;;;3.10;1.90;;;;;;;10.30;45.99;97029.90;108630;1274;22529;-72
2024/03/17 08:46:23;;;;;;;4.40;1.70;;;;;;;9.35;44.66;97038.45;108618;1274;22533;-72
2024/03/17 08:48:53;;;;;;;2.50;1.40;;;;;;;9.20;45.24;97042.90;108659;1275;24318;-72
2024/03/17 08:51:23;;;;;;;5.30;1.90;;;;;;;9.01;45.60;97043.14;108601;1274;22527;-72
2024/03/17 08:53:54;;;;;;;3.40;1.90;;;;;;;8.87;45.67;97032.86;108627;1268;22537;-71
2024/03/17 08:56:25;;;;;;;4.20;2.10;;;;;;;8.48;46.95;97039.38;108654;1270;26456;-71
2024/03/17 08:58:56;;;;;;;4.30;2.60;;;;;;;8.17;47.47;97044.92;108671;1269;24228;-71
2024/03/17 09:01:28;;;;;;;9.60;4.20;;;;;;;8.18;48.92;97042.45;108677;1274;22522;-72
2024/03/17 09:04:01;;;;;;;11.10;6.10;;;;;;;8.19;49.71;97044.48;108684;1269;22536;-72
2024/03/17 09:06:32;;;;;;;3.60;2.30;;;;;;;8.23;49.94;97042.27;108648;1274;22540;-72
2024/03/17 09:09:14;;;;;;;5.90;3.20;;;;;;;8.21;50.30;97031.48;108658;1274;25406;-71
2024/03/17 09:11:44;;;;;;;5.30;2.90;;;;;;;8.22;51.11;97039.15;108677;1274;24251;-72
2024/03/17 09:14:17;;;;;;;6.00;2.90;;;;;;;8.36;51.77;97037.38;108675;1274;23039;-72
2024/03/17 09:16:58;;;;;;;7.10;3.80;;;;;;;8.40;52.00;97035.26;108655;1274;22536;-72
2024/03/17 09:19:33;;;;;;;8.10;4.00;;;;;;;7.92;51.69;97030.98;108633;1274;22543;-72
2024/03/17 09:22:06;;;;;;;10.00;5.20;;;;;;;7.23;52.87;97027.67;108633;1268;25417;-72
2024/03/17 09:24:37;;;;;;;5.80;3.50;;;;;;;6.85;54.37;97036.64;108628;1274;24172;-72
2024/03/17 09:27:09;;;;;;;9.70;4.30;;;;;;;6.95;55.36;97037.45;108682;1274;22563;-72
2024/03/17 09:29:42;;;;;;;6.00;2.50;;;;;;;7.11;55.58;97038.24;108662;1274;22526;-72
2024/03/17 09:32:17;;;;;;;16.50;8.20;;;;;;;6.94;55.04;97033.17;108658;1270;22580;-72
2024/03/17 09:34:50;;;;;;;5.00;2.50;;;;;;;6.78;54.69;97030.39;108683;1267;24340;-72
2024/03/17 09:37:23;;;;;;;7.90;3.90;;;;;;;6.48;53.70;97041.34;108702;1274;22580;-72
2024/03/17 09:39:57;;;;;;;7.10;3.60;;;;;;;6.44;54.48;97039.86;108792;1274;22544;-72
2024/03/17 09:42:28;;;;;;;11.10;4.30;;;;;;;6.59;54.95;97035.71;108689;1266;26777;-72
2024/03/17 09:44:58;;;;;;;8.20;3.30;;;;;;;6.79;55.16;97024.77;108626;1274;25244;-72
2024/03/17 09:47:32;;;;;;;6.50;3.20;;;;;;;6.58;54.83;97035.38;108607;1274;25331;-72
2024/03/17 09:50:13;;;;;;;8.80;3.70;;;;;;;6.39;55.12;97036.36;108693;1274;22584;-72
2024/03/17 09:52:46;;;;;;;5.40;2.40;;;;;;;6.14;55.36;97036.34;108612;1268;24291;-72
2024/03/17 09:55:18;;;;;;;11.10;5.20;;;;;;;6.19;55.92;97031.89;108616;1267;22522;-72
2024/03/17 09:57:49;;;;;;;6.00;3.00;;;;;;;6.33;56.15;97028.79;108631;1266;22528;-72
2024/03/17 10:00:21;;;;;;;6.70;3.50;;;;;;;6.27;55.90;97026.34;108608;1274;25450;-72
2024/03/17 10:02:53;;;;;;;5.60;3.00;;;;;;;6.25;55.95;97026.04;108634;1267;22657;-72
2024/03/17 10:05:25;;;;;;;5.80;2.00;;;;;;;6.17;55.71;97017.85;108594;1266;22571;-72
2024/03/17 10:07:56;;;;;;;4.40;2.10;;;;;;;6.09;54.54;97006.42;108648;1274;22597;-72
2024/03/17 10:10:27;;;;;;;6.80;2.30;;;;;;;6.18;55.27;97011.55;108678;1274;22537;-72
2024/03/17 10:12:58;;;;;;;5.20;2.20;;;;;;;6.31;55.47;97006.27;108721;1274;22536;-72
2024/03/17 10:15:29;;;;;;;7.60;2.70;;;;;;;6.43;55.66;97011.61;108624;1274;23289;-72
2024/03/17 10:18:00;;;;;;;5.50;2.10;;;;;;;6.57;55.92;97012.50;108669;1274;24251;-72
2024/03/17 10:20:31;;;;;;;6.80;2.70;;;;;;;6.56;55.18;97003.53;108675;1270;24841;-72
2024/03/17 10:23:07;;;;;;;8.40;4.10;;;;;;;6.53;55.96;97010.17;108649;1270;24219;-72
2024/03/17 10:25:44;;;;;;;6.20;2.90;;;;;;;6.92;55.92;97000.98;108645;1274;22570;-72
2024/03/17 10:28:16;;;;;;;4.00;2.20;;;;;;;7.00;54.52;96990.75;108640;1274;23888;-72
2024/03/17 10:31:00;;;;;;;4.80;2.50;;;;;;;7.10;55.75;96996.95;108656;1274;25359;-72
2024/03/17 10:33:30;;;;;;;4.90;2.50;;;;;;;7.29;55.01;96985.42;108650;1274;22542;-72
2024/03/17 10:36:05;;;;;;;3.60;1.90;;;;;;;7.34;54.34;97000.54;108659;1267;25408;-72
2024/03/17 10:38:36;;;;;;;5.10;2.50;;;;;;;7.25;53.20;97003.55;108661;1274;24246;-72
2024/03/17 10:41:07;;;;;;;6.90;2.20;;;;;;;7.43;53.72;97000.64;108634;1269;22538;-72
2024/03/17 10:43:40;;;;;;;5.00;2.00;;;;;;;7.36;53.20;96994.44;108653;1274;22540;-72
2024/03/17 10:46:21;;;;;;;5.80;1.90;;;;;;;7.30;52.70;96981.77;108640;1275;22565;-72
2024/03/17 10:48:53;;;;;;;7.40;2.20;;;;;;;7.19;52.28;96987.98;108688;1269;22619;-72
2024/03/17 10:51:24;;;;;;;6.00;2.00;;;;;;;7.18;52.88;96991.06;108652;1268;22540;-72
2024/03/17 10:53:58;;;;;;;4.50;1.80;;;;;;;7.37;53.57;96987.27;108610;1274;22585;-72
2024/03/17 10:56:29;;;;;;;5.20;2.30;;;;;;;7.34;53.55;96986.66;108671;1274;22538;-72
2024/03/17 10:59:03;;;;;;;4.80;2.20;;;;;;;7.27;53.79;96992.86;108657;1268;22555;-73
2024/03/17 11:01:34;;;;;;;5.00;2.20;;;;;;;7.34;54.47;96984.14;108685;1275;22627;-72
2024/03/17 11:04:10;;;;;;;6.30;2.40;;;;;;;7.43;54.90;96987.44;108655;1269;22526;-73
2024/03/17 11:06:41;;;;;;;5.90;2.60;;;;;;;7.50;55.29;96991.52;108643;1268;25460;-72
2024/03/17 11:09:17;;;;;;;5.30;2.10;;;;;;;7.83;55.92;96988.08;108674;1268;22549;-73
2024/03/17 11:11:47;;;;;;;6.40;2.20;;;;;;;8.23;56.21;96985.13;108638;1268;22549;-73
2024/03/17 11:14:22;;;;;;;5.40;1.90;;;;;;;8.63;56.49;96980.70;108674;1269;25361;-72
2024/03/17 11:16:53;;;;;;;6.50;2.10;;;;;;;8.79;55.11;96977.09;108678;1274;22532;-72
2024/03/17 11:19:24;;;;;;;5.70;2.20;;;;;;;8.88;55.38;96986.23;108655;1270;22537;-73
2024/03/17 11:21:56;;;;;;;4.90;1.80;;;;;;;8.86;54.79;96983.03;108656;1274;22558;-73
2024/03/17 11:24:29;;;;;;;6.70;1.80;;;;;;;8.88;54.49;96984.32;108633;1274;22531;-73
2024/03/17 11:27:00;;;;;;;5.90;1.60;;;;;;;8.76;52.90;96982.09;108632;1274;25262;-73
2024/03/17 11:29:33;;;;;;;3.50;1.40;;;;;;;8.38;51.61;96974.67;108636;1274;24300;-72
2024/03/17 11:32:28;;;;;;;4.10;1.90;;;;;;;8.20;51.54;96970.80;108639;1274;22536;-72
2024/03/17 11:35:15;;;;;;;4.40;1.50;;;;;;;8.31;51.44;96965.02;108841;1274;24327;-72
2024/03/17 11:37:45;;;;;;;4.60;1.90;;;;;;;8.39;52.17;96964.12;108735;1274;22589;-72
2024/03/17 11:40:29;;;;;;;3.30;1.40;;;;;;;8.62;52.56;96958.66;108783;1274;22523;-72
2024/03/17 11:43:07;;;;;;;3.70;1.60;;;;;;;8.72;52.02;96950.71;108726;1266;22610;-72
2024/03/17 11:45:40;;;;;;;3.10;1.70;;;;;;;8.59;50.75;96942.95;108773;1267;22551;-72
2024/03/17 11:48:19;;;;;;;6.40;2.00;;;;;;;8.57;50.88;96951.70;108800;1274;22518;-72
2024/03/17 11:50:51;;;;;;;3.40;1.40;;;;;;;8.53;50.45;96941.42;108815;1274;25380;-73
2024/03/17 11:53:21;;;;;;;5.30;1.50;;;;;;;8.49;50.22;96945.48;108681;1267;22538;-72